sensor_id;sensor_type;location;lat;lon;timestamp;pressure;altitude;pressure_sealevel;temperature;humidity
17072;BME280;7731;50.720;6.912;2024-03-06T00:00:43;100169.28;;;5.41;100.00
17072;BME280;7731;50.720;6.912;2024-03-06T00:03:13;100180.91;;;5.51;100.00
17072;BME280;7731;50.720;6.912;2024-03-06T00:05:44;100183.88;;;5.66;100.00
17072;BME280;7731;50.720;6.912;2024-03-06T00:08:16;100178.00;;;5.64;100.00
17072;BME280;7731;50.720;6.912;2024-03-06T00:10:46;100182.47;;;5.55;100.00
17072;BME280;7731;50.720;6.912;2024-03-06T00:13:20;100183.41;;;5.53;100.00
17072;BME280;7731;50.720;6.912;2024-03-06T00:15:53;100193.50;;;5.56;100.00
17072;BME280;7731;50.720;6.912;2024-03-06T00:18:24;100192.91;;;5.46;100.00
17072;BME280;7731;50.720;6.912;2024-03-06T00:20:55;100198.78;;;5.50;100.00
17072;BME280;7731;50.720;6.912;2024-03-06T00:23:26;100201.44;;;5.45;100.00
17072;BME280;7731;50.720;6.912;2024-03-06T00:25:56;100197.59;;;5.30;100.00
17072;BME280;7731;50.720;6.912;2024-03-06T00:28:28;100200.19;;;5.29;100.00
17072;BME280;7731;50.720;6.912;2024-03-06T00:31:01;100202.09;;;5.21;100.00
17072;BME280;7731;50.720;6.912;2024-03-06T00:33:32;100206.09;;;5.29;100.00
17072;BME280;7731;50.720;6.912;2024-03-06T00:36:03;100211.22;;;5.61;100.00
17072;BME280;7731;50.720;6.912;2024-03-06T00:38:33;100210.38;;;5.29;100.00
17072;BME280;7731;50.720;6.912;2024-03-06T00:41:04;100224.13;;;5.22;100.00
17072;BME280;7731;50.720;6.912;2024-03-06T00:43:35;100220.66;;;5.26;100.00
17072;BME280;7731;50.720;6.912;2024-03-06T00:46:08;100224.06;;;5.25;100.00
17072;BME280;7731;50.720;6.912;2024-03-06T00:48:39;100224.09;;;5.23;100.00
17072;BME280;7731;50.720;6.912;2024-03-06T00:51:09;100220.72;;;5.23;100.00
17072;BME280;7731;50.720;6.912;2024-03-06T00:53:40;100226.81;;;5.17;100.00
17072;BME280;7731;50.720;6.912;2024-03-06T00:56:10;100232.56;;;5.24;100.00
17072;BME280;7731;50.720;6.912;2024-03-06T00:58:41;100230.78;;;5.27;100.00
17072;BME280;7731;50.720;6.912;2024-03-06T01:01:16;100230.19;;;5.17;100.00
17072;BME280;7731;50.720;6.912;2024-03-06T01:03:48;100232.25;;;5.03;100.00
17072;BME280;7731;50.720;6.912;2024-03-06T01:06:19;100233.66;;;5.15;100.00
17072;BME280;7731;50.720;6.912;2024-03-06T01:08:51;100235.34;;;5.14;100.00
17072;BME280;7731;50.720;6.912;2024-03-06T01:11:23;100244.94;;;5.05;100.00
17072;BME280;7731;50.720;6.912;2024-03-06T01:13:54;100249.91;;;5.09;100.00
17072;BME280;7731;50.720;6.912;2024-03-06T01:16:29;100248.13;;;5.13;100.00
17072;BME280;7731;50.720;6.912;2024-03-06T01:19:00;100252.53;;;5.06;100.00
17072;BME280;7731;50.720;6.912;2024-03-06T01:21:30;100255.09;;;5.06;100.00
17072;BME280;7731;50.720;6.912;2024-03-06T01:24:02;100253.19;;;5.14;100.00
17072;BME280;7731;50.720;6.912;2024-03-06T01:26:32;100255.09;;;5.06;100.00
17072;BME280;7731;50.720;6.912;2024-03-06T01:29:02;100252.69;;;5.00;100.00
17072;BME280;7731;50.720;6.912;2024-03-06T01:31:35;100257.31;;;4.84;100.00
17072;BME280;7731;50.720;6.912;2024-03-06T01:34:06;100249.13;;;4.71;100.00
17072;BME280;7731;50.720;6.912;2024-03-06T01:36:36;100254.22;;;4.71;100.00
17072;BME280;7731;50.720;6.912;2024-03-06T01:39:06;100261.03;;;4.71;100.00
17072;BME280;7731;50.720;6.912;2024-03-06T01:41:37;100252.41;;;4.76;100.00
17072;BME280;7731;50.720;6.912;2024-03-06T01:44:08;100260.09;;;4.75;100.00
17072;BME280;7731;50.720;6.912;2024-03-06T01:46:42;100259.31;;;4.71;100.00
17072;BME280;7731;50.720;6.912;2024-03-06T01:49:15;100256.81;;;4.70;100.00
17072;BME280;7731;50.720;6.912;2024-03-06T01:52:00;100266.38;;;4.60;100.00
17072;BME280;7731;50.720;6.912;2024-03-06T01:54:32;100264.06;;;4.49;100.00
17072;BME280;7731;50.720;6.912;2024-03-06T01:57:04;100264.25;;;4.77;100.00
17072;BME280;7731;50.720;6.912;2024-03-06T01:59:36;100261.97;;;4.67;100.00
17072;BME280;7731;50.720;6.912;2024-03-06T02:02:09;100268.06;;;4.61;100.00
17072;BME280;7731;50.720;6.912;2024-03-06T02:04:41;100273.41;;;4.49;100.00
17072;BME280;7731;50.720;6.912;2024-03-06T02:07:14;100274.59;;;4.32;100.00
17072;BME280;7731;50.720;6.912;2024-03-06T02:09:46;100269.75;;;4.21;100.00
17072;BME280;7731;50.720;6.912;2024-03-06T02:12:16;100268.88;;;4.22;100.00
17072;BME280;7731;50.720;6.912;2024-03-06T02:14:47;100270.84;;;4.09;100.00
17072;BME280;7731;50.720;6.912;2024-03-06T02:17:24;100273.41;;;4.08;100.00
17072;BME280;7731;50.720;6.912;2024-03-06T02:19:57;100264.84;;;4.12;100.00
17072;BME280;7731;50.720;6.912;2024-03-06T02:22:31;100264.78;;;4.15;100.00
17072;BME280;7731;50.720;6.912;2024-03-06T02:25:01;100262.22;;;4.17;100.00
17072;BME280;7731;50.720;6.912;2024-03-06T02:27:31;100263.16;;;4.11;100.00
17072;BME280;7731;50.720;6.912;2024-03-06T02:30:02;100253.13;;;4.05;100.00
17072;BME280;7731;50.720;6.912;2024-03-06T02:32:33;100261.66;;;4.02;100.00
17072;BME280;7731;50.720;6.912;2024-03-06T02:35:05;100256.66;;;3.98;100.00
17072;BME280;7731;50.720;6.912;2024-03-06T02:37:41;100257.44;;;4.01;100.00
17072;BME280;7731;50.720;6.912;2024-03-06T02:40:11;100253.25;;;3.99;100.00
17072;BME280;7731;50.720;6.912;2024-03-06T02:42:42;100252.56;;;3.92;100.00
17072;BME280;7731;50.720;6.912;2024-03-06T02:45:12;100252.78;;;3.80;100.00
17072;BME280;7731;50.720;6.912;2024-03-06T02:47:44;100258.06;;;3.70;100.00
17072;BME280;7731;50.720;6.912;2024-03-06T02:50:15;100256.91;;;3.85;100.00
17072;BME280;7731;50.720;6.912;2024-03-06T02:52:48;100258.81;;;3.74;100.00
17072;BME280;7731;50.720;6.912;2024-03-06T02:55:19;100265.09;;;3.56;100.00
17072;BME280;7731;50.720;6.912;2024-03-06T02:57:50;100265.13;;;3.53;100.00
17072;BME280;7731;50.720;6.912;2024-03-06T03:00:22;100259.13;;;3.58;100.00
17072;BME280;7731;50.720;6.912;2024-03-06T03:02:56;100252.47;;;3.51;100.00
17072;BME280;7731;50.720;6.912;2024-03-06T03:05:26;100262.06;;;3.37;100.00
17072;BME280;7731;50.720;6.912;2024-03-06T03:08:01;100259.28;;;3.49;100.00
17072;BME280;7731;50.720;6.912;2024-03-06T03:10:32;100260.13;;;3.50;100.00
17072;BME280;7731;50.720;6.912;2024-03-06T03:13:04;100259.31;;;3.48;100.00
17072;BME280;7731;50.720;6.912;2024-03-06T03:15:37;100266.94;;;3.48;100.00
17072;BME280;7731;50.720;6.912;2024-03-06T03:18:08;100271.25;;;3.44;100.00
17072;BME280;7731;50.720;6.912;2024-03-06T03:20:39;100272.13;;;3.42;100.00
17072;BME280;7731;50.720;6.912;2024-03-06T03:23:12;100274.75;;;3.37;100.00
17072;BME280;7731;50.720;6.912;2024-03-06T03:25:50;100276.22;;;3.50;100.00
17072;BME280;7731;50.720;6.912;2024-03-06T03:28:20;100285.34;;;3.59;100.00
17072;BME280;7731;50.720;6.912;2024-03-06T03:30:51;100288.50;;;3.73;100.00
17072;BME280;7731;50.720;6.912;2024-03-06T03:33:21;100286.88;;;3.69;100.00
17072;BME280;7731;50.720;6.912;2024-03-06T03:35:51;100293.56;;;3.73;100.00
17072;BME280;7731;50.720;6.912;2024-03-06T03:38:26;100296.00;;;3.80;100.00
17072;BME280;7731;50.720;6.912;2024-03-06T03:41:00;100305.34;;;3.78;100.00
17072;BME280;7731;50.720;6.912;2024-03-06T03:43:31;100315.50;;;3.78;100.00
17072;BME280;7731;50.720;6.912;2024-03-06T03:46:02;100318.06;;;3.76;100.00
17072;BME280;7731;50.720;6.912;2024-03-06T03:48:33;100320.59;;;3.78;100.00
17072;BME280;7731;50.720;6.912;2024-03-06T03:51:06;100314.00;;;3.67;100.00
17072;BME280;7731;50.720;6.912;2024-03-06T03:53:39;100324.66;;;3.86;100.00
17072;BME280;7731;50.720;6.912;2024-03-06T03:56:09;100328.44;;;4.10;100.00
17072;BME280;7731;50.720;6.912;2024-03-06T03:58:40;100328.91;;;3.86;100.00
17072;BME280;7731;50.720;6.912;2024-03-06T04:01:11;100339.09;;;3.86;100.00
17072;BME280;7731;50.720;6.912;2024-03-06T04:03:42;100333.25;;;3.79;100.00
17072;BME280;7731;50.720;6.912;2024-03-06T04:06:12;100333.84;;;3.95;100.00
17072;BME280;7731;50.720;6.912;2024-03-06T04:08:47;100325.38;;;3.93;100.00
17072;BME280;7731;50.720;6.912;2024-03-06T04:11:18;100339.25;;;3.77;100.00
17072;BME280;7731;50.720;6.912;2024-03-06T04:13:50;100334.13;;;3.80;100.00
17072;BME280;7731;50.720;6.912;2024-03-06T04:16:20;100337.94;;;3.55;100.00
17072;BME280;7731;50.720;6.912;2024-03-06T04:18:51;100335.44;;;3.52;100.00
17072;BME280;7731;50.720;6.912;2024-03-06T04:21:22;100339.53;;;3.61;100.00
17072;BME280;7731;50.720;6.912;2024-03-06T04:23:58;100334.44;;;3.61;100.00
17072;BME280;7731;50.720;6.912;2024-03-06T04:26:31;100331.94;;;3.60;100.00
17072;BME280;7731;50.720;6.912;2024-03-06T04:29:01;100336.31;;;3.50;100.00
17072;BME280;7731;50.720;6.912;2024-03-06T04:31:35;100343.97;;;3.48;100.00
17072;BME280;7731;50.720;6.912;2024-03-06T04:34:06;100336.28;;;3.51;100.00
17072;BME280;7731;50.720;6.912;2024-03-06T04:36:39;100351.81;;;3.34;100.00
17072;BME280;7731;50.720;6.912;2024-03-06T04:39:11;100341.59;;;3.37;100.00
17072;BME280;7731;50.720;6.912;2024-03-06T04:41:45;100355.38;;;3.24;100.00
17072;BME280;7731;50.720;6.912;2024-03-06T04:44:16;100349.66;;;3.10;100.00
17072;BME280;7731;50.720;6.912;2024-03-06T04:46:50;100357.19;;;3.16;100.00
17072;BME280;7731;50.720;6.912;2024-03-06T04:49:21;100350.19;;;3.32;100.00
17072;BME280;7731;50.720;6.912;2024-03-06T04:51:51;100347.03;;;3.16;100.00
17072;BME280;7731;50.720;6.912;2024-03-06T04:54:24;100359.88;;;3.05;100.00
17072;BME280;7731;50.720;6.912;2024-03-06T04:56:54;100366.56;;;3.11;100.00
17072;BME280;7731;50.720;6.912;2024-03-06T04:59:25;100371.75;;;3.04;100.00
17072;BME280;7731;50.720;6.912;2024-03-06T05:01:55;100376.75;;;3.09;100.00
17072;BME280;7731;50.720;6.912;2024-03-06T05:04:30;100371.03;;;2.93;100.00
17072;BME280;7731;50.720;6.912;2024-03-06T05:07:15;100379.75;;;2.77;100.00
17072;BME280;7731;50.720;6.912;2024-03-06T05:10:02;100382.25;;;2.78;100.00
17072;BME280;7731;50.720;6.912;2024-03-06T05:12:48;100383.91;;;2.79;100.00
17072;BME280;7731;50.720;6.912;2024-03-06T05:15:34;100374.31;;;3.01;100.00
17072;BME280;7731;50.720;6.912;2024-03-06T05:18:18;100383.06;;;2.82;100.00
17072;BME280;7731;50.720;6.912;2024-03-06T05:21:03;100384.78;;;2.80;100.00
17072;BME280;7731;50.720;6.912;2024-03-06T05:23:47;100386.41;;;2.84;100.00
17072;BME280;7731;50.720;6.912;2024-03-06T05:26:34;100389.94;;;2.74;100.00
17072;BME280;7731;50.720;6.912;2024-03-06T05:29:18;100384.88;;;2.74;100.00
17072;BME280;7731;50.720;6.912;2024-03-06T05:32:03;100390.91;;;2.63;100.00
17072;BME280;7731;50.720;6.912;2024-03-06T05:34:48;100396.00;;;2.62;100.00
17072;BME280;7731;50.720;6.912;2024-03-06T05:37:32;100397.59;;;2.71;100.00
17072;BME280;7731;50.720;6.912;2024-03-06T05:40:19;100403.59;;;2.63;100.00
17072;BME280;7731;50.720;6.912;2024-03-06T05:43:06;100410.41;;;2.58;100.00
17072;BME280;7731;50.720;6.912;2024-03-06T05:45:50;100424.03;;;2.51;100.00
17072;BME280;7731;50.720;6.912;2024-03-06T05:48:35;100426.75;;;2.34;100.00
17072;BME280;7731;50.720;6.912;2024-03-06T05:51:20;100435.97;;;2.43;100.00
17072;BME280;7731;50.720;6.912;2024-03-06T05:54:04;100432.47;;;2.50;100.00
17072;BME280;7731;50.720;6.912;2024-03-06T05:56:51;100437.63;;;2.44;100.00
17072;BME280;7731;50.720;6.912;2024-03-06T05:59:38;100446.13;;;2.40;100.00
17072;BME280;7731;50.720;6.912;2024-03-06T06:02:09;100451.16;;;2.46;100.00
17072;BME280;7731;50.720;6.912;2024-03-06T06:04:39;100452.59;;;2.65;100.00
17072;BME280;7731;50.720;6.912;2024-03-06T06:07:26;100448.50;;;2.57;100.00
17072;BME280;7731;50.720;6.912;2024-03-06T06:09:56;100451.25;;;2.37;100.00
17072;BME280;7731;50.720;6.912;2024-03-06T06:12:37;100448.81;;;2.27;100.00
17072;BME280;7731;50.720;6.912;2024-03-06T06:15:13;100453.88;;;2.27;100.00
17072;BME280;7731;50.720;6.912;2024-03-06T06:17:45;100446.25;;;2.30;100.00
17072;BME280;7731;50.720;6.912;2024-03-06T06:20:16;100464.66;;;2.45;100.00
17072;BME280;7731;50.720;6.912;2024-03-06T06:22:46;100461.28;;;2.46;100.00
17072;BME280;7731;50.720;6.912;2024-03-06T06:25:18;100461.50;;;2.24;100.00
17072;BME280;7731;50.720;6.912;2024-03-06T06:27:48;100469.94;;;2.25;100.00
17072;BME280;7731;50.720;6.912;2024-03-06T06:30:24;100470.69;;;2.35;100.00
17072;BME280;7731;50.720;6.912;2024-03-06T06:32:54;100473.06;;;2.48;100.00
17072;BME280;7731;50.720;6.912;2024-03-06T06:35:25;100474.63;;;2.63;100.00
17072;BME280;7731;50.720;6.912;2024-03-06T06:37:55;100473.06;;;2.50;100.00
17072;BME280;7731;50.720;6.912;2024-03-06T06:40:26;100477.41;;;2.40;100.00
17072;BME280;7731;50.720;6.912;2024-03-06T06:42:57;100480.66;;;2.50;100.00
17072;BME280;7731;50.720;6.912;2024-03-06T06:45:30;100483.19;;;2.50;100.00
17072;BME280;7731;50.720;6.912;2024-03-06T06:48:00;100498.22;;;2.68;100.00
17072;BME280;7731;50.720;6.912;2024-03-06T06:50:30;100492.31;;;2.70;100.00
17072;BME280;7731;50.720;6.912;2024-03-06T06:53:01;100492.25;;;2.73;100.00
17072;BME280;7731;50.720;6.912;2024-03-06T06:55:32;100500.66;;;2.76;100.00
17072;BME280;7731;50.720;6.912;2024-03-06T06:58:06;100498.22;;;2.68;100.00
17072;BME280;7731;50.720;6.912;2024-03-06T07:00:39;100513.41;;;2.72;100.00
17072;BME280;7731;50.720;6.912;2024-03-06T07:03:10;100519.44;;;2.63;100.00
17072;BME280;7731;50.720;6.912;2024-03-06T07:05:40;100516.13;;;2.53;100.00
17072;BME280;7731;50.720;6.912;2024-03-06T07:08:11;100523.75;;;2.53;100.00
17072;BME280;7731;50.720;6.912;2024-03-06T07:10:42;100522.00;;;2.61;100.00
17072;BME280;7731;50.720;6.912;2024-03-06T07:13:12;100524.97;;;2.96;100.00
17072;BME280;7731;50.720;6.912;2024-03-06T07:15:45;100524.88;;;3.03;100.00
17072;BME280;7731;50.720;6.912;2024-03-06T07:18:16;100527.41;;;3.05;100.00
17072;BME280;7731;50.720;6.912;2024-03-06T07:20:46;100529.94;;;3.07;100.00
17072;BME280;7731;50.720;6.912;2024-03-06T07:23:17;100534.31;;;2.95;100.00
17072;BME280;7731;50.720;6.912;2024-03-06T07:25:49;100541.84;;;3.01;100.00
17072;BME280;7731;50.720;6.912;2024-03-06T07:28:19;100537.44;;;3.14;100.00
17072;BME280;7731;50.720;6.912;2024-03-06T07:30:52;100536.75;;;3.03;100.00
17072;BME280;7731;50.720;6.912;2024-03-06T07:33:24;100538.75;;;3.46;100.00
17072;BME280;7731;50.720;6.912;2024-03-06T07:35:55;100546.84;;;3.09;100.00
17072;BME280;7731;50.720;6.912;2024-03-06T07:38:25;100551.41;;;3.48;100.00
17072;BME280;7731;50.720;6.912;2024-03-06T07:40:58;100547.09;;;3.53;100.00
17072;BME280;7731;50.720;6.912;2024-03-06T07:43:29;100550.00;;;3.89;100.00
17072;BME280;7731;50.720;6.912;2024-03-06T07:46:01;100549.13;;;3.90;100.00
17072;BME280;7731;50.720;6.912;2024-03-06T07:48:42;100551.97;;;3.68;100.00
17072;BME280;7731;50.720;6.912;2024-03-06T07:51:15;100548.66;;;4.18;100.00
17072;BME280;7731;50.720;6.912;2024-03-06T07:53:45;100559.91;;;4.56;100.00
17072;BME280;7731;50.720;6.912;2024-03-06T07:56:17;100548.56;;;6.65;100.00
17072;BME280;7731;50.720;6.912;2024-03-06T07:58:48;100541.72;;;9.56;100.00
17072;BME280;7731;50.720;6.912;2024-03-06T08:01:21;100548.72;;;11.73;82.96
17072;BME280;7731;50.720;6.912;2024-03-06T08:03:59;100538.47;;;13.57;65.28
17072;BME280;7731;50.720;6.912;2024-03-06T08:06:30;100541.91;;;12.77;60.38
17072;BME280;7731;50.720;6.912;2024-03-06T08:09:01;100542.63;;;13.28;60.27
17072;BME280;7731;50.720;6.912;2024-03-06T08:11:31;100545.41;;;12.25;62.08
17072;BME280;7731;50.720;6.912;2024-03-06T08:14:01;100560.88;;;11.88;66.75
17072;BME280;7731;50.720;6.912;2024-03-06T08:16:34;100556.25;;;12.98;64.39
17072;BME280;7731;50.720;6.912;2024-03-06T08:19:05;100562.97;;;12.85;58.96
17072;BME280;7731;50.720;6.912;2024-03-06T08:21:35;100565.25;;;13.07;59.29
17072;BME280;7731;50.720;6.912;2024-03-06T08:24:06;100565.91;;;13.90;56.09
17072;BME280;7731;50.720;6.912;2024-03-06T08:26:36;100568.59;;;13.25;56.96
17072;BME280;7731;50.720;6.912;2024-03-06T08:29:06;100566.47;;;13.33;59.05
17072;BME280;7731;50.720;6.912;2024-03-06T08:31:39;100568.25;;;14.40;53.61
17072;BME280;7731;50.720;6.912;2024-03-06T08:34:10;100578.28;;;13.37;57.74
17072;BME280;7731;50.720;6.912;2024-03-06T08:36:44;100574.59;;;14.20;56.09
17072;BME280;7731;50.720;6.912;2024-03-06T08:39:14;100573.59;;;14.81;55.61
17072;BME280;7731;50.720;6.912;2024-03-06T08:41:45;100580.56;;;14.51;53.09
17072;BME280;7731;50.720;6.912;2024-03-06T08:44:15;100584.19;;;16.16;50.35
17072;BME280;7731;50.720;6.912;2024-03-06T08:46:48;100586.06;;;15.60;49.27
17072;BME280;7731;50.720;6.912;2024-03-06T08:49:21;100590.22;;;15.21;51.53
17072;BME280;7731;50.720;6.912;2024-03-06T08:51:51;100592.38;;;15.83;49.43
17072;BME280;7731;50.720;6.912;2024-03-06T08:54:22;100602.25;;;13.87;52.82
17072;BME280;7731;50.720;6.912;2024-03-06T08:56:52;100596.28;;;15.34;50.50
17072;BME280;7731;50.720;6.912;2024-03-06T08:59:26;100596.59;;;14.41;52.49
17072;BME280;7731;50.720;6.912;2024-03-06T09:02:13;100601.59;;;13.36;53.98
17072;BME280;7731;50.720;6.912;2024-03-06T09:04:45;100602.56;;;13.97;54.06
17072;BME280;7731;50.720;6.912;2024-03-06T09:07:16;100601.81;;;13.31;58.93
17072;BME280;7731;50.720;6.912;2024-03-06T09:09:46;100596.94;;;14.21;55.07
17072;BME280;7731;50.720;6.912;2024-03-06T09:12:17;100607.50;;;13.54;56.15
17072;BME280;7731;50.720;6.912;2024-03-06T09:14:49;100599.88;;;14.15;55.13
17072;BME280;7731;50.720;6.912;2024-03-06T09:17:22;100598.53;;;14.82;54.23
17072;BME280;7731;50.720;6.912;2024-03-06T09:19:53;100601.34;;;14.19;55.17
17072;BME280;7731;50.720;6.912;2024-03-06T09:22:37;100594.81;;;15.71;51.07
17072;BME280;7731;50.720;6.912;2024-03-06T09:25:08;100596.84;;;15.81;50.08
17072;BME280;7731;50.720;6.912;2024-03-06T09:27:39;100606.81;;;15.45;51.32
17072;BME280;7731;50.720;6.912;2024-03-06T09:30:13;100604.19;;;14.59;54.00
17072;BME280;7731;50.720;6.912;2024-03-06T09:32:47;100604.34;;;16.51;49.89
17072;BME280;7731;50.720;6.912;2024-03-06T09:35:25;100596.13;;;17.59;46.94
17072;BME280;7731;50.720;6.912;2024-03-06T09:37:55;100602.06;;;18.79;44.10
17072;BME280;7731;50.720;6.912;2024-03-06T09:40:29;100606.25;;;18.23;42.83
17072;BME280;7731;50.720;6.912;2024-03-06T09:43:00;100601.06;;;20.66;39.14
17072;BME280;7731;50.720;6.912;2024-03-06T09:45:30;100604.94;;;20.29;39.03
17072;BME280;7731;50.720;6.912;2024-03-06T09:48:04;100602.06;;;20.54;38.83
17072;BME280;7731;50.720;6.912;2024-03-06T09:50:35;100609.56;;;19.61;39.67
17072;BME280;7731;50.720;6.912;2024-03-06T09:53:12;100606.31;;;18.68;42.57
17072;BME280;7731;50.720;6.912;2024-03-06T09:55:48;100619.97;;;16.90;45.60
17072;BME280;7731;50.720;6.912;2024-03-06T09:58:19;100624.84;;;15.32;48.63
17072;BME280;7731;50.720;6.912;2024-03-06T10:00:50;100616.16;;;19.33;43.05
17072;BME280;7731;50.720;6.912;2024-03-06T10:03:24;100617.22;;;19.30;42.66
17072;BME280;7731;50.720;6.912;2024-03-06T10:05:54;100620.00;;;17.88;41.71
17072;BME280;7731;50.720;6.912;2024-03-06T10:08:29;100626.19;;;16.21;46.66
17072;BME280;7731;50.720;6.912;2024-03-06T10:11:00;100631.81;;;15.17;49.40
17072;BME280;7731;50.720;6.912;2024-03-06T10:13:30;100637.53;;;15.08;51.30
17072;BME280;7731;50.720;6.912;2024-03-06T10:16:03;100639.13;;;15.81;48.52
17072;BME280;7731;50.720;6.912;2024-03-06T10:18:38;100634.50;;;14.26;52.00
17072;BME280;7731;50.720;6.912;2024-03-06T10:21:09;100640.25;;;13.69;55.99
17072;BME280;7731;50.720;6.912;2024-03-06T10:23:40;100636.72;;;17.36;44.88
17072;BME280;7731;50.720;6.912;2024-03-06T10:26:12;100625.63;;;17.21;46.02
17072;BME280;7731;50.720;6.912;2024-03-06T10:28:45;100641.34;;;14.27;52.08
17072;BME280;7731;50.720;6.912;2024-03-06T10:31:27;100635.06;;;15.07;52.01
17072;BME280;7731;50.720;6.912;2024-03-06T10:34:00;100630.66;;;17.48;45.98
17072;BME280;7731;50.720;6.912;2024-03-06T10:36:33;100643.09;;;16.14;49.81
17072;BME280;7731;50.720;6.912;2024-03-06T10:39:07;100640.63;;;15.57;50.83
17072;BME280;7731;50.720;6.912;2024-03-06T10:41:43;100639.19;;;15.09;51.14
17072;BME280;7731;50.720;6.912;2024-03-06T10:44:16;100639.00;;;15.12;52.29
17072;BME280;7731;50.720;6.912;2024-03-06T10:46:58;100636.81;;;16.57;47.16
17072;BME280;7731;50.720;6.912;2024-03-06T10:49:32;100643.28;;;17.03;47.91
17072;BME280;7731;50.720;6.912;2024-03-06T10:52:04;100632.38;;;16.85;46.08
17072;BME280;7731;50.720;6.912;2024-03-06T10:54:35;100647.31;;;16.81;44.72
17072;BME280;7731;50.720;6.912;2024-03-06T10:57:11;100635.81;;;19.25;39.99
17072;BME280;7731;50.720;6.912;2024-03-06T10:59:43;100643.22;;;17.91;43.91
17072;BME280;7731;50.720;6.912;2024-03-06T11:02:17;100638.31;;;17.87;43.83
17072;BME280;7731;50.720;6.912;2024-03-06T11:04:55;100641.22;;;18.77;43.77
17072;BME280;7731;50.720;6.912;2024-03-06T11:07:26;100641.72;;;17.26;45.87
17072;BME280;7731;50.720;6.912;2024-03-06T11:09:59;100641.06;;;18.67;45.21
17072;BME280;7731;50.720;6.912;2024-03-06T11:12:35;100632.50;;;20.43;39.92
17072;BME280;7731;50.720;6.912;2024-03-06T11:15:13;100641.25;;;19.22;39.77
17072;BME280;7731;50.720;6.912;2024-03-06T11:17:44;100643.44;;;18.48;40.72
17072;BME280;7731;50.720;6.912;2024-03-06T11:20:18;100645.22;;;17.38;41.55
17072;BME280;7731;50.720;6.912;2024-03-06T11:23:09;100657.13;;;14.98;47.01
17072;BME280;7731;50.720;6.912;2024-03-06T11:26:02;100655.84;;;14.30;50.79
17072;BME280;7731;50.720;6.912;2024-03-06T11:28:40;100662.44;;;13.07;54.18
17072;BME280;7731;50.720;6.912;2024-03-06T11:31:19;100657.69;;;15.32;50.21
17072;BME280;7731;50.720;6.912;2024-03-06T11:33:54;100657.09;;;14.69;53.30
17072;BME280;7731;50.720;6.912;2024-03-06T11:36:28;100662.16;;;15.71;49.44
17072;BME280;7731;50.720;6.912;2024-03-06T11:39:01;100661.09;;;14.59;54.89
17072;BME280;7731;50.720;6.912;2024-03-06T11:41:48;100659.22;;;13.68;58.50
17072;BME280;7731;50.720;6.912;2024-03-06T11:44:21;100658.25;;;15.08;55.37
17072;BME280;7731;50.720;6.912;2024-03-06T11:46:59;100656.31;;;14.97;55.59
17072;BME280;7731;50.720;6.912;2024-03-06T11:49:32;100647.09;;;17.73;47.53
17072;BME280;7731;50.720;6.912;2024-03-06T11:52:09;100649.50;;;18.24;44.51
17072;BME280;7731;50.720;6.912;2024-03-06T11:54:42;100651.69;;;17.19;46.24
17072;BME280;7731;50.720;6.912;2024-03-06T11:57:12;100654.84;;;16.99;47.35
17072;BME280;7731;50.720;6.912;2024-03-06T11:59:43;100633.66;;;16.92;47.61
17072;BME280;7731;50.720;6.912;2024-03-06T12:02:16;100655.97;;;16.29;47.79
17072;BME280;7731;50.720;6.912;2024-03-06T12:04:47;100652.09;;;14.66;51.08
17072;BME280;7731;50.720;6.912;2024-03-06T12:07:21;100668.22;;;13.61;56.80
17072;BME280;7731;50.720;6.912;2024-03-06T12:09:52;100662.59;;;13.03;57.55
17072;BME280;7731;50.720;6.912;2024-03-06T12:12:24;100667.81;;;12.14;67.45
17072;BME280;7731;50.720;6.912;2024-03-06T12:14:58;100655.66;;;12.36;66.80
17072;BME280;7731;50.720;6.912;2024-03-06T12:17:31;100662.81;;;12.65;66.23
17072;BME280;7731;50.720;6.912;2024-03-06T12:20:02;100661.56;;;12.55;64.17
17072;BME280;7731;50.720;6.912;2024-03-06T12:22:37;100665.81;;;12.39;64.17
17072;BME280;7731;50.720;6.912;2024-03-06T12:25:18;100663.31;;;12.55;64.42
17072;BME280;7731;50.720;6.912;2024-03-06T12:27:54;100663.66;;;12.12;66.92
17072;BME280;7731;50.720;6.912;2024-03-06T12:30:26;100663.53;;;12.50;65.57
17072;BME280;7731;50.720;6.912;2024-03-06T12:32:57;100667.66;;;12.18;66.36
17072;BME280;7731;50.720;6.912;2024-03-06T12:35:32;100661.69;;;12.35;64.29
17072;BME280;7731;50.720;6.912;2024-03-06T12:38:15;100668.00;;;12.64;63.60
17072;BME280;7731;50.720;6.912;2024-03-06T12:40:45;100667.06;;;13.51;60.96
17072;BME280;7731;50.720;6.912;2024-03-06T12:43:16;100668.56;;;13.55;57.41
17072;BME280;7731;50.720;6.912;2024-03-06T12:45:46;100655.06;;;13.82;54.57
17072;BME280;7731;50.720;6.912;2024-03-06T12:48:18;100667.63;;;13.56;54.53
17072;BME280;7731;50.720;6.912;2024-03-06T12:50:49;100656.09;;;12.96;54.83
17072;BME280;7731;50.720;6.912;2024-03-06T12:53:24;100661.09;;;12.82;55.26
17072;BME280;7731;50.720;6.912;2024-03-06T12:55:54;100655.94;;;14.13;53.43
17072;BME280;7731;50.720;6.912;2024-03-06T12:58:25;100650.69;;;14.30;51.21
17072;BME280;7731;50.720;6.912;2024-03-06T13:00:55;100657.50;;;14.01;51.18
17072;BME280;7731;50.720;6.912;2024-03-06T13:03:26;100658.72;;;13.46;53.63
17072;BME280;7731;50.720;6.912;2024-03-06T13:05:56;100656.13;;;13.12;54.50
17072;BME280;7731;50.720;6.912;2024-03-06T13:08:30;100658.91;;;13.74;51.85
17072;BME280;7731;50.720;6.912;2024-03-06T13:11:00;100649.06;;;13.33;54.13
17072;BME280;7731;50.720;6.912;2024-03-06T13:13:31;100656.06;;;13.14;55.13
17072;BME280;7731;50.720;6.912;2024-03-06T13:16:02;100653.63;;;13.11;53.32
17072;BME280;7731;50.720;6.912;2024-03-06T13:18:35;100646.66;;;14.10;51.60
17072;BME280;7731;50.720;6.912;2024-03-06T13:21:07;100651.41;;;13.38;52.69
17072;BME280;7731;50.720;6.912;2024-03-06T13:23:40;100649.31;;;13.45;53.72
17072;BME280;7731;50.720;6.912;2024-03-06T13:26:11;100647.75;;;13.58;52.39
17072;BME280;7731;50.720;6.912;2024-03-06T13:28:41;100645.75;;;13.63;52.39
17072;BME280;7731;50.720;6.912;2024-03-06T13:31:19;100655.56;;;13.72;52.36